Time;durP1;ratioP1;P1;durP2;ratioP2;P2;SDS_P1;SDS_P2;PMS_P1;PMS_P2;Temp;Humidity;BMP_temperature;BMP_pressure;BME280_temperature;BME280_humidity;BME280_pressure;Samples;Min_cycle;Max_cycle;Signal;HPM_P1;HPM_P2
2021/03/26 00:01:11;;;;;;;12.27;7.90;;;;;;;1.76;65.86;99564.91;4860311;29;20128;-79
2021/03/26 00:03:40;;;;;;;11.77;7.43;;;;;;;1.75;65.90;99564.09;4878499;29;20117;-80
2021/03/26 00:06:09;;;;;;;18.02;10.85;;;;;;;1.75;65.59;99558.81;4877775;29;20140;-79
2021/03/26 00:08:35;;;;;;;17.95;12.93;;;;;;;1.75;65.91;99560.66;4877971;29;20512;-79
2021/03/26 00:11:02;;;;;;;15.27;11.32;;;;;;;1.76;65.87;99557.81;4879784;29;20069;-80
2021/03/26 00:13:27;;;;;;;15.13;10.70;;;;;;;1.74;65.63;99554.56;4881872;29;20413;-80
2021/03/26 00:15:53;;;;;;;12.82;9.23;;;;;;;1.76;65.86;99555.16;4880852;29;20033;-80
2021/03/26 00:18:19;;;;;;;16.55;9.27;;;;;;;1.77;65.62;99558.63;4881489;29;20035;-80
2021/03/26 00:20:44;;;;;;;14.63;8.90;;;;;;;1.76;65.96;99557.00;4881039;29;20033;-79
2021/03/26 00:23:10;;;;;;;18.83;11.48;;;;;;;1.75;65.70;99555.38;4882028;29;20029;-79
2021/03/26 00:25:36;;;;;;;18.63;9.75;;;;;;;1.69;65.54;99553.56;4880645;29;20037;-78
2021/03/26 00:28:12;;;;;;;18.65;9.75;;;;;;;1.74;65.92;99557.19;4881474;29;20093;-82
2021/03/26 00:30:37;;;;;;;17.70;9.77;;;;;;;1.73;65.66;99560.88;4878760;29;20064;-78
2021/03/26 00:33:05;;;;;;;13.18;8.38;;;;;;;1.73;65.44;99560.88;4876705;29;20045;-79
2021/03/26 00:35:31;;;;;;;16.80;8.57;;;;;;;1.73;65.75;99562.69;4875612;29;20032;-79
2021/03/26 00:37:57;;;;;;;13.80;8.52;;;;;;;1.71;65.38;99560.25;4878117;29;20029;-80
2021/03/26 00:40:23;;;;;;;13.13;7.57;;;;;;;1.71;65.74;99564.69;4879132;29;20410;-80
2021/03/26 00:42:57;;;;;;;16.33;7.97;;;;;;;1.69;65.49;99561.47;4880643;29;20056;-81
2021/03/26 00:56:03;;;;;;;12.70;7.60;;;;;;;1.60;65.80;99551.13;4905148;29;20059;-79
2021/03/26 00:58:28;;;;;;;14.32;7.80;;;;;;;1.58;65.88;99550.53;4899103;29;20032;-76
2021/03/26 01:00:55;;;;;;;10.68;6.38;;;;;;;1.57;65.96;99548.09;4898904;29;20040;-77
2021/03/26 01:03:22;;;;;;;13.43;8.15;;;;;;;1.54;66.22;99551.94;4899303;29;20036;-77
2021/03/26 01:05:51;;;;;;;12.32;7.13;;;;;;;1.51;66.00;99549.72;4897759;29;20032;-77
2021/03/26 01:08:18;;;;;;;16.58;8.13;;;;;;;1.50;65.83;99558.66;4900787;29;20032;-80
2021/03/26 01:10:51;;;;;;;13.40;8.30;;;;;;;1.47;66.06;99553.78;4900524;29;20036;-78
2021/03/26 01:13:18;;;;;;;15.95;8.60;;;;;;;1.46;66.09;99559.25;4896569;29;20418;-78
2021/03/26 01:15:45;;;;;;;16.25;7.40;;;;;;;1.42;66.39;99558.84;4895405;29;20044;-78
2021/03/26 01:18:20;;;;;;;15.73;7.38;;;;;;;1.40;66.22;99556.44;4896570;29;20052;-77
2021/03/26 01:20:45;;;;;;;13.38;7.70;;;;;;;1.40;65.89;99560.88;4896160;29;20037;-76
2021/03/26 01:23:11;;;;;;;10.90;7.22;;;;;;;1.37;66.13;99563.94;4891732;29;20041;-76
2021/03/26 01:25:39;;;;;;;11.20;6.60;;;;;;;1.35;65.85;99573.84;4879113;29;20029;-77
2021/03/26 01:28:06;;;;;;;12.07;7.32;;;;;;;1.35;66.23;99571.22;4879423;29;20040;-77
2021/03/26 01:30:33;;;;;;;9.70;6.97;;;;;;;1.31;66.40;99568.19;4877770;29;20041;-77
2021/03/26 01:33:00;;;;;;;15.38;6.85;;;;;;;1.28;66.27;99563.28;4878643;29;20088;-78
2021/03/26 01:35:26;;;;;;;9.52;5.70;;;;;;;1.28;66.14;99571.19;4878946;29;20043;-77
2021/03/26 01:37:52;;;;;;;12.32;6.60;;;;;;;1.25;66.17;99569.78;4878243;29;20119;-77
2021/03/26 01:44:02;;;;;;;13.05;7.35;;;;;;;1.21;66.16;99573.00;4891860;29;20063;-79
2021/03/26 01:46:35;;;;;;;15.45;7.05;;;;;;;1.16;66.38;99571.00;4847769;29;20048;-79
2021/03/26 01:52:41;;;;;;;13.90;5.95;;;;;;;1.09;66.35;99578.88;5461512;23;20059;-81
2021/03/26 01:55:09;;;;;;;9.88;6.22;;;;;;;1.07;66.44;99577.47;4914823;29;20048;-79
2021/03/26 01:57:36;;;;;;;10.93;6.82;;;;;;;1.06;66.45;99575.84;4903904;29;20035;-79
2021/03/26 02:00:10;;;;;;;11.68;6.57;;;;;;;1.04;66.17;99577.84;4902249;29;20072;-79
2021/03/26 02:02:36;;;;;;;9.35;5.90;;;;;;;1.02;66.33;99580.69;4909675;29;20056;-79
2021/03/26 02:05:09;;;;;;;8.80;5.63;;;;;;;1.02;66.08;99577.25;4916497;29;20028;-80
2021/03/26 02:07:36;;;;;;;8.98;6.15;;;;;;;1.00;66.23;99585.38;4905316;29;20505;-80
2021/03/26 02:10:02;;;;;;;13.65;7.53;;;;;;;1.01;65.93;99586.97;4916243;29;20042;-79
2021/03/26 02:20:11;;;;;;;14.43;10.75;;;;;;;0.99;66.19;99596.91;5374857;23;20063;-83
2021/03/26 02:22:37;;;;;;;11.02;8.35;;;;;;;0.95;65.90;99588.59;4922000;29;20119;-77
2021/03/26 02:25:10;;;;;;;9.50;5.88;;;;;;;0.95;66.08;99593.03;4897390;29;20045;-80
2021/03/26 02:27:37;;;;;;;10.57;6.85;;;;;;;0.96;65.77;99599.94;4896650;29;20481;-79
2021/03/26 02:30:24;;;;;;;17.17;8.77;;;;;;;0.89;65.88;99581.50;4897173;29;20036;-79
2021/03/26 02:32:50;;;;;;;9.95;6.50;;;;;;;0.93;65.89;99597.72;4896475;29;20551;-76
2021/03/26 02:35:24;;;;;;;12.73;7.10;;;;;;;0.92;65.90;99598.72;4898430;29;20033;-77
2021/03/26 02:37:56;;;;;;;13.07;8.15;;;;;;;0.93;65.77;99595.09;4894324;29;20520;-77
2021/03/26 02:40:29;;;;;;;10.88;7.20;;;;;;;0.89;65.87;99599.09;4884655;29;20032;-79
2021/03/26 02:43:08;;;;;;;14.18;8.57;;;;;;;0.89;65.72;99610.47;4890662;29;20068;-77
2021/03/26 02:45:40;;;;;;;10.45;6.65;;;;;;;0.87;65.57;99609.03;4880672;29;20040;-80
2021/03/26 02:48:14;;;;;;;16.63;8.13;;;;;;;0.85;65.49;99618.94;4880958;29;20039;-77
2021/03/26 02:50:51;;;;;;;20.05;10.35;;;;;;;0.82;65.59;99606.16;4880970;29;20037;-80
2021/03/26 02:53:41;;;;;;;11.98;8.02;;;;;;;0.83;65.27;99619.16;4879027;29;20540;-78
2021/03/26 02:56:13;;;;;;;13.23;7.53;;;;;;;0.80;65.75;99620.34;4876488;29;20060;-79
2021/03/26 02:58:47;;;;;;;10.68;7.35;;;;;;;0.79;65.73;99620.53;4878405;29;20128;-79
2021/03/26 03:01:37;;;;;;;12.82;8.07;;;;;;;0.78;65.73;99622.38;4878443;29;20033;-78
2021/03/26 03:04:12;;;;;;;10.38;6.07;;;;;;;0.73;65.87;99616.91;4878096;29;20040;-78
2021/03/26 03:06:44;;;;;;;10.75;5.70;;;;;;;0.74;65.60;99618.50;4877803;29;20509;-80
2021/03/26 03:09:12;;;;;;;10.05;5.97;;;;;;;0.73;65.66;99616.91;4846172;29;20043;-78
2021/03/26 03:12:12;;;;;;;8.90;5.50;;;;;;;0.75;65.63;99619.31;4877572;29;20040;-79
2021/03/26 03:14:47;;;;;;;9.60;5.28;;;;;;;0.74;65.60;99618.50;4870024;29;20037;-81
2021/03/26 03:17:22;;;;;;;13.52;7.40;;;;;;;0.76;65.46;99615.69;4883376;29;20040;-81
2021/03/26 03:26:07;;;;;;;12.82;6.55;;;;;;;0.75;65.08;99614.84;5169096;23;20094;-80
2021/03/26 03:29:10;;;;;;;14.55;6.80;;;;;;;0.73;65.00;99623.97;4930095;29;20043;-82
2021/03/26 03:31:48;;;;;;;12.52;7.47;;;;;;;0.73;65.07;99631.88;5052969;23;20052;-82
2021/03/26 03:37:35;;;;;;;12.02;6.47;;;;;;;0.68;65.33;99632.44;4926213;29;19930;-82
2021/03/26 03:43:58;;;;;;;12.20;6.10;;;;;;;0.61;65.52;99636.88;4935505;29;20126;-82
2021/03/26 03:46:33;;;;;;;12.65;6.05;;;;;;;0.57;65.42;99635.66;4923548;29;20111;-80
2021/03/26 03:49:06;;;;;;;9.77;5.75;;;;;;;0.53;65.68;99643.13;4919775;29;20028;-81
2021/03/26 03:52:09;;;;;;;9.70;6.25;;;;;;;0.50;65.52;99646.16;4918117;29;20036;-77
2021/03/26 03:54:39;;;;;;;9.63;6.03;;;;;;;0.48;65.60;99651.59;4918226;29;20024;-77
2021/03/26 03:57:13;;;;;;;12.18;6.55;;;;;;;0.43;65.71;99647.94;4917343;29;20118;-75
2021/03/26 03:59:48;;;;;;;10.82;6.45;;;;;;;0.36;66.03;99645.25;4917877;29;20024;-80
2021/03/26 04:02:27;;;;;;;14.85;7.13;;;;;;;0.35;65.92;99654.16;4917478;29;20044;-81
2021/03/26 04:05:21;;;;;;;9.18;6.10;;;;;;;0.33;65.88;99650.94;4912164;29;20072;-80
2021/03/26 04:08:25;;;;;;;13.02;6.63;;;;;;;0.29;65.99;99650.50;4879614;29;20044;-79
2021/03/26 04:10:57;;;;;;;10.23;5.72;;;;;;;0.27;66.19;99654.31;4844466;29;20494;-79
2021/03/26 04:13:33;;;;;;;11.32;6.50;;;;;;;0.26;66.25;99653.50;4844261;29;20033;-79
2021/03/26 04:16:00;;;;;;;11.40;6.18;;;;;;;0.26;66.46;99655.34;4889680;29;20054;-79
2021/03/26 04:18:32;;;;;;;11.27;6.32;;;;;;;0.25;66.43;99654.50;4896601;29;20033;-79
2021/03/26 04:21:05;;;;;;;11.77;6.53;;;;;;;0.27;66.52;99656.94;4898395;29;20386;-79
2021/03/26 04:23:35;;;;;;;14.60;8.20;;;;;;;0.28;66.40;99655.94;4889704;29;20120;-79
2021/03/26 04:26:42;;;;;;;13.93;7.65;;;;;;;0.29;66.69;99661.03;4883217;29;20037;-82
2021/03/26 04:35:15;;;;;;;15.43;8.00;;;;;;;0.37;66.44;99667.13;4907320;27;20048;-81
2021/03/26 04:38:01;;;;;;;14.80;9.18;;;;;;;0.38;66.41;99669.56;4906764;29;20104;-79
2021/03/26 04:40:32;;;;;;;18.63;10.25;;;;;;;0.42;66.47;99670.78;4903421;29;20083;-79
2021/03/26 04:43:08;;;;;;;22.27;11.52;;;;;;;0.44;66.38;99668.78;4902007;29;20031;-78
2021/03/26 04:46:02;;;;;;;24.13;13.45;;;;;;;0.48;66.47;99672.66;4901641;29;20055;-80
2021/03/26 04:48:47;;;;;;;29.48;14.00;;;;;;;0.48;66.52;99677.13;4895948;29;20038;-77
2021/03/26 04:51:39;;;;;;;24.02;12.88;;;;;;;0.51;66.77;99678.53;4898249;29;20035;-78
2021/03/26 04:54:10;;;;;;;26.35;11.13;;;;;;;0.53;66.43;99684.44;4900706;29;20032;-78
2021/03/26 04:56:45;;;;;;;24.83;12.65;;;;;;;0.55;66.41;99682.41;4901889;29;20035;-80
2021/03/26 04:59:12;;;;;;;28.05;13.55;;;;;;;0.59;66.39;99688.91;4903495;29;20035;-79
2021/03/26 05:01:41;;;;;;;27.93;13.60;;;;;;;0.65;66.33;99688.13;4899766;29;20095;-78
2021/03/26 05:04:30;;;;;;;19.33;12.20;;;;;;;0.71;66.55;99690.00;4900552;29;20024;-80
2021/03/26 05:07:00;;;;;;;26.75;14.15;;;;;;;0.75;66.50;99683.31;4900887;29;20043;-80
2021/03/26 05:09:31;;;;;;;34.85;19.73;;;;;;;0.83;66.38;99684.16;4890219;29;20119;-80
2021/03/26 05:12:08;;;;;;;28.02;15.70;;;;;;;0.88;66.62;99687.00;4881783;29;20497;-80
2021/03/26 05:14:52;;;;;;;37.13;18.33;;;;;;;0.95;65.71;99688.69;4882162;29;20039;-78
2021/03/26 05:17:28;;;;;;;32.35;16.55;;;;;;;1.05;65.77;99693.56;4880397;29;20036;-77
2021/03/26 05:20:25;;;;;;;23.40;14.40;;;;;;;1.10;65.80;99685.88;4894918;29;20038;-77
2021/03/26 05:23:14;;;;;;;26.63;14.63;;;;;;;1.22;65.91;99699.31;4930819;29;20051;-79
2021/03/26 05:25:41;;;;;;;;;;;;;;;1.33;65.39;99702.38;4899410;29;20351;-80
2021/03/26 05:28:11;;;;;;;25.92;13.60;;;;;;;1.43;65.72;99698.34;4934216;29;19921;-83
2021/03/26 05:30:40;;;;;;;30.33;15.40;;;;;;;1.53;64.73;99703.22;4921580;29;20028;-83
2021/03/26 05:33:19;;;;;;;25.73;14.00;;;;;;;1.75;63.94;99709.13;4917274;29;20044;-83
2021/03/26 05:36:02;;;;;;;27.52;14.88;;;;;;;2.06;63.86;99702.47;4912589;29;20451;-83
2021/03/26 05:38:43;;;;;;;17.02;12.35;;;;;;;2.49;62.74;99701.19;4914758;29;20039;-83
2021/03/26 05:41:21;;;;;;;20.42;11.77;;;;;;;2.98;61.73;99701.66;4904180;29;20031;-81
2021/03/26 05:43:49;;;;;;;25.77;13.60;;;;;;;3.44;60.22;99702.44;4901474;29;20538;-81
2021/03/26 05:46:56;;;;;;;27.33;15.25;;;;;;;3.95;58.91;99699.84;4899701;29;20724;-79
2021/03/26 05:49:58;;;;;;;31.13;15.63;;;;;;;4.53;57.08;99701.34;4899500;29;20039;-79
2021/03/26 05:52:56;;;;;;;34.00;17.60;;;;;;;5.05;55.87;99713.41;4901028;29;20067;-80
2021/03/26 05:55:32;;;;;;;30.90;17.38;;;;;;;5.45;55.56;99704.94;4904842;29;20039;-76
2021/03/26 06:00:54;;;;;;;35.67;20.17;;;;;;;6.14;54.33;99709.84;5166448;23;20064;-78
2021/03/26 06:12:12;;;;;;;46.65;25.75;;;;;;;7.21;50.24;99707.00;5827292;23;20051;-79
2021/03/26 06:14:57;;;;;;;40.83;24.33;;;;;;;7.43;49.40;99709.81;5271737;23;20069;-81
2021/03/26 06:20:35;;;;;;;61.30;31.42;;;;;;;7.76;49.15;99702.91;5339959;23;20074;-80
2021/03/26 06:23:22;;;;;;;65.20;31.52;;;;;;;7.97;48.41;99717.41;5209757;23;20052;-81
2021/03/26 06:35:11;;;;;;;41.40;19.95;;;;;;;8.54;45.28;99720.91;4953344;29;20050;-80
2021/03/26 06:38:14;;;;;;;47.30;24.20;;;;;;;8.69;45.91;99719.50;4857778;29;20097;-79
2021/03/26 06:47:50;;;;;;;30.65;18.98;;;;;;;8.91;44.79;99735.53;5536319;23;20075;-82
2021/03/26 06:50:41;;;;;;;24.48;14.98;;;;;;;8.91;45.15;99743.53;4875755;29;20040;-82
2021/03/26 06:53:35;;;;;;;28.42;16.00;;;;;;;8.98;45.28;99746.81;4917569;29;20028;-81
2021/03/26 06:56:07;;;;;;;24.58;15.38;;;;;;;9.03;44.25;99748.75;4909507;29;21602;-80
2021/03/26 06:59:10;;;;;;;27.23;15.63;;;;;;;9.10;44.54;99749.38;4913222;29;20500;-79
2021/03/26 07:01:47;;;;;;;20.42;11.88;;;;;;;9.10;44.03;99736.81;4934185;29;20063;-83
2021/03/26 07:04:18;;;;;;;18.38;10.88;;;;;;;9.10;43.52;99744.84;4921665;29;20039;-83
2021/03/26 07:06:53;;;;;;;21.05;10.43;;;;;;;9.12;43.43;99741.94;4921334;29;20051;-82
2021/03/26 07:09:46;;;;;;;17.08;10.00;;;;;;;9.13;43.66;99743.56;4920447;29;20036;-82
2021/03/26 07:12:40;;;;;;;14.23;8.55;;;;;;;9.06;43.58;99745.59;4921281;29;20031;-83
2021/03/26 07:15:29;;;;;;;17.35;9.15;;;;;;;9.12;43.64;99745.41;4919750;29;20027;-81
2021/03/26 07:18:29;;;;;;;12.82;8.68;;;;;;;9.11;43.37;99743.78;4920376;29;20063;-81
2021/03/26 07:20:55;;;;;;;14.32;9.43;;;;;;;9.15;44.23;99759.31;4883686;29;20047;-80
2021/03/26 07:23:35;;;;;;;16.20;9.43;;;;;;;9.20;43.34;99749.47;4913450;29;20032;-82
2021/03/26 07:26:12;;;;;;;11.95;6.38;;;;;;;9.25;43.05;99754.91;4900402;29;20040;-81
2021/03/26 07:28:48;;;;;;;11.05;7.28;;;;;;;9.34;43.73;99752.59;4895924;29;20024;-80
2021/03/26 07:31:41;;;;;;;11.57;6.90;;;;;;;9.45;43.37;99754.31;4899432;29;20040;-81
2021/03/26 07:34:58;;;;;;;8.48;4.95;;;;;;;9.54;41.96;99749.31;4916068;29;20059;-80
2021/03/26 07:37:37;;;;;;;8.30;5.88;;;;;;;9.53;42.03;99760.25;4824237;29;20573;-81
2021/03/26 07:43:40;;;;;;;10.02;6.35;;;;;;;9.62;42.00;99761.44;4918135;29;20634;-81
2021/03/26 07:46:36;;;;;;;9.38;5.88;;;;;;;9.66;42.31;99759.06;4899054;29;20123;-83
2021/03/26 07:49:19;;;;;;;7.78;5.72;;;;;;;9.65;42.00;99758.25;4898638;29;20141;-81
2021/03/26 07:52:13;;;;;;;8.15;5.82;;;;;;;9.66;41.63;99764.41;4899069;29;20123;-82
2021/03/26 07:54:57;;;;;;;7.22;5.95;;;;;;;9.63;41.96;99762.22;4864728;29;20036;-78
2021/03/26 07:57:43;;;;;;;9.05;6.20;;;;;;;9.60;41.39;99764.34;4898745;29;20104;-78
2021/03/26 08:00:34;;;;;;;10.73;6.50;;;;;;;9.68;42.76;99762.25;4915722;29;20051;-78
2021/03/26 08:03:50;;;;;;;9.07;6.10;;;;;;;9.68;41.94;99767.59;4915605;29;20028;-87
2021/03/26 08:06:50;;;;;;;12.52;6.20;;;;;;;9.68;41.88;99775.63;4867006;29;20099;-86
2021/03/26 08:09:30;;;;;;;10.57;5.20;;;;;;;9.72;42.98;99766.06;4898779;29;20131;-78
2021/03/26 08:12:24;;;;;;;9.05;6.35;;;;;;;9.75;42.71;99774.38;4915423;29;20111;-79
2021/03/26 08:15:06;;;;;;;11.02;6.50;;;;;;;9.78;42.06;99771.19;4915153;29;20089;-77
2021/03/26 08:18:06;;;;;;;11.13;6.20;;;;;;;9.81;42.58;99775.22;4915694;29;20024;-78
2021/03/26 08:20:59;;;;;;;10.82;6.38;;;;;;;9.88;43.03;99773.16;4913113;29;20048;-79
2021/03/26 08:23:43;;;;;;;10.90;5.85;;;;;;;9.97;41.76;99776.16;4894526;29;20115;-79
2021/03/26 08:26:27;;;;;;;9.68;5.95;;;;;;;10.01;41.51;99777.28;4898020;29;20060;-78
2021/03/26 08:29:25;;;;;;;10.68;5.97;;;;;;;10.01;39.45;99779.13;4897942;29;20084;-78
2021/03/26 08:32:05;;;;;;;12.10;6.10;;;;;;;10.00;39.17;99778.34;4916518;29;20507;-78
2021/03/26 08:34:45;;;;;;;12.40;7.15;;;;;;;10.06;39.79;99781.88;4914962;29;20463;-78
2021/03/26 08:37:13;;;;;;;8.32;5.43;;;;;;;10.09;39.47;99776.81;4898497;29;20417;-80
2021/03/26 08:39:44;;;;;;;8.57;5.25;;;;;;;10.08;38.70;99775.22;4915642;29;20433;-78
2021/03/26 08:42:24;;;;;;;10.93;6.60;;;;;;;10.16;38.22;99779.28;4898456;29;20036;-77
2021/03/26 08:44:55;;;;;;;8.48;5.55;;;;;;;10.23;39.47;99777.19;4915823;29;20024;-76
2021/03/26 08:47:37;;;;;;;8.45;4.70;;;;;;;10.26;38.12;99775.88;4898003;29;20074;-76
2021/03/26 08:50:25;;;;;;;7.38;5.03;;;;;;;10.31;38.46;99777.78;4915738;29;20063;-77
2021/03/26 08:53:26;;;;;;;7.60;5.13;;;;;;;10.43;36.50;99783.78;4898689;29;20036;-79
2021/03/26 08:56:14;;;;;;;7.38;5.25;;;;;;;10.47;36.86;99781.41;4895062;29;20464;-78
2021/03/26 08:58:50;;;;;;;;;;;;;;;10.56;35.57;99779.88;4916046;29;20131;-75
2021/03/26 09:01:28;;;;;;;10.50;4.63;;;;;;;10.62;35.96;99784.19;4914959;29;19915;-78
2021/03/26 09:04:12;;;;;;;7.82;5.18;;;;;;;10.70;36.65;99772.97;4894253;29;20556;-78
2021/03/26 09:06:52;;;;;;;8.55;4.97;;;;;;;10.80;36.23;99779.47;4913726;29;20044;-78
2021/03/26 09:09:45;;;;;;;8.40;5.20;;;;;;;10.88;36.66;99779.78;4898229;29;20032;-78
2021/03/26 09:12:40;;;;;;;9.32;5.05;;;;;;;10.98;36.05;99773.66;4914496;29;20080;-76
2021/03/26 09:15:06;;;;;;;9.00;5.63;;;;;;;11.07;37.02;99782.03;4914934;29;20123;-76
2021/03/26 09:18:25;;;;;;;7.13;4.15;;;;;;;11.14;35.61;99774.53;4897304;29;20064;-75
2021/03/26 09:20:50;;;;;;;7.10;4.05;;;;;;;11.19;33.20;99771.09;4819746;29;20041;-78
2021/03/26 09:23:16;;;;;;;9.27;5.05;;;;;;;11.21;33.85;99780.47;4907174;29;20040;-76
2021/03/26 09:26:01;;;;;;;7.43;4.78;;;;;;;11.22;34.37;99778.59;4897061;29;20036;-79
2021/03/26 09:28:45;;;;;;;8.38;4.25;;;;;;;11.29;32.82;99786.38;4897502;29;20032;-76
2021/03/26 09:31:34;;;;;;;8.00;4.50;;;;;;;11.30;33.21;99777.28;4897445;29;20504;-77
2021/03/26 09:34:06;;;;;;;8.23;4.20;;;;;;;11.34;33.61;99775.72;4896376;29;20063;-77
2021/03/26 09:36:44;;;;;;;4.43;3.65;;;;;;;11.36;32.36;99776.22;4897064;29;20034;-80
2021/03/26 09:39:17;;;;;;;5.45;3.60;;;;;;;11.34;31.74;99773.03;4897072;29;20032;-85
2021/03/26 09:42:32;;;;;;;5.90;3.88;;;;;;;11.40;33.06;99771.97;4897184;29;20083;-86
2021/03/26 09:45:07;;;;;;;5.13;3.88;;;;;;;11.40;32.26;99766.63;4897124;29;20453;-87
2021/03/26 09:47:57;;;;;;;6.50;3.35;;;;;;;11.43;31.93;99767.97;4892745;29;20059;-87
2021/03/26 09:50:38;;;;;;;6.40;4.22;;;;;;;11.40;31.25;99773.84;4891551;29;20064;-89
2021/03/26 09:53:10;;;;;;;10.00;5.22;;;;;;;11.44;30.47;99764.22;4894313;29;20044;-81
2021/03/26 09:55:38;;;;;;;6.10;4.30;;;;;;;11.46;31.67;99764.75;4893863;29;20037;-80
2021/03/26 09:58:38;;;;;;;7.38;4.00;;;;;;;11.46;30.90;99767.41;4894412;29;20095;-74
2021/03/26 10:01:16;;;;;;;5.75;3.92;;;;;;;11.46;31.55;99762.88;4896189;29;20039;-79
2021/03/26 10:03:54;;;;;;;7.70;4.80;;;;;;;11.44;31.07;99756.19;4914316;29;20527;-77
2021/03/26 10:06:52;;;;;;;7.78;4.20;;;;;;;11.39;29.42;99756.97;4914242;29;20032;-77
2021/03/26 10:12:13;;;;;;;5.80;3.13;;;;;;;11.32;28.88;99751.06;4914267;29;20064;-76
2021/03/26 10:14:56;;;;;;;4.53;3.22;;;;;;;11.36;30.35;99763.66;4897246;29;20040;-76
2021/03/26 10:17:37;;;;;;;4.20;2.95;;;;;;;11.36;29.38;99760.16;4896995;29;20418;-76
2021/03/26 10:20:15;;;;;;;8.98;3.63;;;;;;;11.37;27.96;99759.91;4913864;29;20024;-76
2021/03/26 10:22:51;;;;;;;6.80;3.42;;;;;;;11.41;30.05;99754.81;4914316;29;20036;-76
2021/03/26 10:25:23;;;;;;;4.65;3.50;;;;;;;11.46;28.98;99756.72;4896897;29;20032;-77
2021/03/26 10:28:18;;;;;;;8.05;4.22;;;;;;;11.48;31.50;99755.38;4897200;29;20123;-76
2021/03/26 10:30:50;;;;;;;6.63;3.60;;;;;;;11.53;30.01;99751.91;4910759;29;20032;-77
2021/03/26 10:33:18;;;;;;;4.82;3.20;;;;;;;11.59;29.88;99747.38;4895090;29;20520;-77
2021/03/26 10:35:53;;;;;;;5.53;4.00;;;;;;;11.64;30.30;99752.72;4914085;29;20035;-77
2021/03/26 10:38:37;;;;;;;7.72;3.67;;;;;;;11.67;29.67;99752.22;4917537;29;20043;-76
2021/03/26 10:41:14;;;;;;;6.03;4.25;;;;;;;11.73;30.99;99751.16;4917516;29;20054;-76
2021/03/26 10:43:55;;;;;;;7.07;4.40;;;;;;;11.78;30.60;99742.28;4917161;29;20024;-76
2021/03/26 10:46:28;;;;;;;6.93;4.18;;;;;;;11.83;30.11;99745.78;4917047;29;20032;-77
2021/03/26 10:49:23;;;;;;;4.82;3.40;;;;;;;11.88;29.61;99744.19;4900363;29;20100;-76
2021/03/26 10:52:05;;;;;;;8.77;3.90;;;;;;;11.88;28.41;99742.31;4900283;29;20491;-76
2021/03/26 10:54:51;;;;;;;7.07;5.07;;;;;;;11.88;29.50;99745.00;4916802;29;20556;-76
2021/03/26 10:57:37;;;;;;;5.53;3.75;;;;;;;11.93;29.83;99742.31;4917505;29;20392;-77
2021/03/26 11:00:21;;;;;;;9.88;4.35;;;;;;;11.95;28.72;99729.47;4917062;29;20404;-76
2021/03/26 11:02:57;;;;;;;6.22;5.10;;;;;;;11.96;28.57;99725.75;4917206;29;20032;-76
2021/03/26 11:05:24;;;;;;;8.52;4.13;;;;;;;11.94;30.10;99732.41;4916703;29;20480;-76
2021/03/26 11:08:02;;;;;;;5.28;4.18;;;;;;;11.98;28.97;99730.81;4917269;29;20032;-77
2021/03/26 11:10:48;;;;;;;5.90;4.10;;;;;;;12.00;28.84;99729.47;4917167;29;20035;-77
2021/03/26 11:13:38;;;;;;;4.32;2.72;;;;;;;12.05;27.54;99735.91;4912463;29;20440;-77
2021/03/26 11:16:29;;;;;;;5.30;3.60;;;;;;;12.04;27.06;99728.97;4895828;29;20115;-77
2021/03/26 11:19:03;;;;;;;7.78;3.45;;;;;;;12.02;26.19;99721.16;4897341;29;20029;-77
2021/03/26 11:21:47;;;;;;;5.68;3.45;;;;;;;12.03;26.30;99728.13;4896168;29;20060;-76
2021/03/26 11:24:15;;;;;;;4.35;3.28;;;;;;;12.03;25.52;99730.81;4897423;29;20028;-76
2021/03/26 11:26:48;;;;;;;5.75;3.28;;;;;;;11.96;26.47;99716.84;4897822;29;20041;-77
2021/03/26 11:29:22;;;;;;;5.40;3.05;;;;;;;12.01;26.96;99717.69;4897336;29;20489;-76
2021/03/26 11:44:13;;;;;;;5.85;4.28;;;;;;;12.44;26.45;99689.75;5041800;27;797522;-76
2021/03/26 11:46:43;;;;;;;4.53;3.25;;;;;;;12.46;26.03;99688.41;5067780;28;20035;-76
2021/03/26 11:49:20;;;;;;;6.35;3.60;;;;;;;12.56;26.95;99700.97;5067798;28;20028;-75
2021/03/26 11:51:55;;;;;;;6.88;4.15;;;;;;;12.58;27.47;99684.59;5066464;28;20027;-76
2021/03/26 11:54:42;;;;;;;8.43;3.85;;;;;;;12.63;27.59;99690.75;5068037;28;20057;-76
2021/03/26 11:57:35;;;;;;;5.25;3.67;;;;;;;12.65;27.21;99688.59;5067952;28;20020;-76
2021/03/26 12:00:23;;;;;;;13.88;4.25;;;;;;;12.64;24.89;99676.25;5067923;28;20021;-76
2021/03/26 12:02:59;;;;;;;6.13;3.93;;;;;;;12.69;24.39;99682.69;5066201;28;20086;-77
2021/03/26 12:05:25;;;;;;;5.72;3.85;;;;;;;12.74;24.33;99683.47;5066557;28;20033;-77
2021/03/26 12:08:03;;;;;;;6.97;3.72;;;;;;;12.80;24.33;99673.50;5066125;28;20021;-77
2021/03/26 12:10:36;;;;;;;;;;;;;;;12.85;25.63;99678.84;5066754;28;20074;-76
2021/03/26 12:13:04;;;;;;;5.45;3.20;;;;;;;12.88;24.76;99675.63;5066308;28;20323;-76
2021/03/26 12:15:33;;;;;;;;;;;;;;;12.90;25.27;99680.72;5066682;28;20028;-75
2021/03/26 12:18:14;;;;;;;5.28;3.55;;;;;;;12.94;26.27;99687.16;5066285;28;19913;-76
2021/03/26 12:20:42;;;;;;;5.80;4.13;;;;;;;12.91;25.18;99668.91;5067202;28;20059;-77
2021/03/26 12:23:32;;;;;;;8.82;4.28;;;;;;;12.93;25.51;99670.22;5066135;28;20025;-77
2021/03/26 12:26:07;;;;;;;6.07;3.75;;;;;;;12.97;24.66;99665.94;5065728;28;20082;-77
2021/03/26 12:28:41;;;;;;;4.38;3.10;;;;;;;13.02;24.10;99656.22;5065691;28;20031;-77
2021/03/26 12:31:18;;;;;;;6.30;3.85;;;;;;;13.04;24.26;99656.78;5065784;28;20115;-76
2021/03/26 12:33:48;;;;;;;7.10;4.15;;;;;;;13.09;23.94;99657.53;5066419;28;20060;-76
2021/03/26 12:36:16;;;;;;;6.68;4.18;;;;;;;13.11;23.03;99654.59;5065134;28;20035;-76
2021/03/26 12:38:56;;;;;;;5.53;3.78;;;;;;;13.15;24.36;99658.31;5066831;28;20027;-76
2021/03/26 12:41:53;;;;;;;4.70;3.50;;;;;;;13.21;24.43;99649.13;5065693;28;20060;-77
2021/03/26 12:44:37;;;;;;;9.40;4.25;;;;;;;13.23;24.60;99651.53;5058141;28;20443;-77
2021/03/26 12:47:24;;;;;;;5.25;3.55;;;;;;;13.25;24.02;99649.38;5052126;28;20386;-77
2021/03/26 12:49:53;;;;;;;4.03;2.67;;;;;;;13.22;22.63;99649.91;5052005;28;20115;-76
2021/03/26 12:52:24;;;;;;;4.82;2.63;;;;;;;13.17;19.96;99641.91;5053520;28;20138;-76
2021/03/26 12:55:20;;;;;;;5.50;3.15;;;;;;;13.16;22.74;99646.50;5051842;28;20028;-76
2021/03/26 12:57:50;;;;;;;7.68;2.85;;;;;;;13.13;22.87;99642.47;5053073;28;20021;-76
2021/03/26 13:00:38;;;;;;;4.78;2.38;;;;;;;13.13;21.86;99645.16;5052084;28;20032;-76
2021/03/26 13:03:37;;;;;;;3.10;2.47;;;;;;;13.16;21.64;99645.66;5052160;28;20021;-76
2021/03/26 13:06:09;;;;;;;3.10;2.38;;;;;;;13.13;22.83;99637.09;5025106;28;20255;-76
2021/03/26 13:08:38;;;;;;;4.25;2.88;;;;;;;13.09;22.53;99633.34;5053354;28;20033;-77
2021/03/26 13:11:19;;;;;;;4.88;2.58;;;;;;;13.10;22.04;99631.50;5052002;28;20017;-76
2021/03/26 13:14:01;;;;;;;3.38;2.55;;;;;;;13.09;23.04;99640.63;5052951;28;20057;-76
2021/03/26 13:16:44;;;;;;;3.97;2.45;;;;;;;13.07;23.62;99638.22;5053033;28;20104;-76
2021/03/26 13:19:18;;;;;;;3.92;2.60;;;;;;;12.98;23.20;99629.13;5051512;28;20132;-76
2021/03/26 13:21:54;;;;;;;3.17;2.88;;;;;;;12.95;24.01;99627.00;5052509;28;20120;-76
2021/03/26 13:24:44;;;;;;;4.25;3.10;;;;;;;12.91;24.45;99629.41;5053178;28;20056;-76
2021/03/26 13:27:13;;;;;;;3.45;2.80;;;;;;;12.94;24.04;99626.19;5051507;28;20060;-76
2021/03/26 13:29:40;;;;;;;5.85;2.35;;;;;;;12.90;23.58;99633.22;5033936;28;20025;-76
2021/03/26 13:32:08;;;;;;;4.13;2.88;;;;;;;12.84;24.15;99626.28;5032831;28;20033;-76
2021/03/26 13:34:40;;;;;;;7.95;2.95;;;;;;;12.75;24.08;99626.03;5031618;28;20025;-76
2021/03/26 13:37:21;;;;;;;3.55;2.63;;;;;;;12.68;23.21;99630.09;5031368;28;20485;-75
2021/03/26 13:40:01;;;;;;;3.75;2.45;;;;;;;12.56;23.28;99628.53;5031434;28;20120;-75
2021/03/26 13:42:31;;;;;;;3.28;1.88;;;;;;;12.50;25.03;99640.38;5031236;28;20049;-76
2021/03/26 13:45:18;;;;;;;3.83;2.33;;;;;;;12.51;25.08;99635.78;5032613;28;20076;-76
2021/03/26 13:47:43;;;;;;;3.25;2.47;;;;;;;12.54;25.76;99636.06;5032067;28;20040;-76
2021/03/26 13:50:15;;;;;;;4.68;2.85;;;;;;;12.52;24.86;99632.03;5030868;28;20025;-77
2021/03/26 13:53:03;;;;;;;2.38;2.20;;;;;;;12.57;23.98;99632.84;5030940;28;20507;-75
2021/03/26 13:55:31;;;;;;;;;;;;;;;12.54;24.54;99630.69;5031819;28;20370;-77
2021/03/26 13:58:07;;;;;;;3.75;2.58;;;;;;;12.57;24.86;99632.84;5032401;28;19909;-78
2021/03/26 14:00:33;;;;;;;3.63;2.65;;;;;;;12.60;22.87;99632.25;5031174;28;20025;-77